createdAt,value
2022-11-26T10:17:01.904Z,0.52
2022-11-26T10:20:06.840Z,0.88
2022-11-26T10:22:57.086Z,0.98
2022-11-26T10:25:33.833Z,0.60
2022-11-26T10:28:35.923Z,0.60
2022-11-26T10:31:35.268Z,0.93
2022-11-26T10:34:17.338Z,0.90
2022-11-26T10:36:51.780Z,0.57
2022-11-26T10:39:22.235Z,0.70
2022-11-26T10:41:54.107Z,0.60
2022-11-26T10:44:41.945Z,0.82
2022-11-26T10:47:34.863Z,0.50
2022-11-26T10:50:39.586Z,0.30
2022-11-26T10:56:21.124Z,0.68
2022-11-26T10:59:07.954Z,0.57
2022-11-26T11:01:40.173Z,0.40
2022-11-26T11:04:38.338Z,0.52
2022-11-26T11:07:11.908Z,0.32
2022-11-26T11:09:53.705Z,0.65
2022-11-26T11:12:31.354Z,0.47
2022-11-26T11:15:40.416Z,0.35
2022-11-26T11:18:28.013Z,0.30
2022-11-26T11:21:02.025Z,0.30
2022-11-26T11:24:06.979Z,0.28
2022-11-26T11:26:38.864Z,0.50
2022-11-26T11:32:40.562Z,0.47
2022-11-26T11:35:33.476Z,0.43
2022-11-26T11:38:04.805Z,0.55
2022-11-26T11:40:42.893Z,0.30
2022-11-26T11:43:20.152Z,0.32
2022-11-26T11:46:37.298Z,0.28
2022-11-26T11:50:04.829Z,0.60
2022-11-26T11:53:06.580Z,0.40
2022-11-26T11:56:48.011Z,0.60
2022-11-26T12:00:10.848Z,0.40
2022-11-26T12:03:13.636Z,0.50
2022-11-26T12:06:34.445Z,0.80
2022-11-26T12:09:30.288Z,0.77
2022-11-26T12:12:14.907Z,0.68
2022-11-26T12:15:16.639Z,0.63
2022-11-26T12:17:50.326Z,0.57
2022-11-26T12:20:34.481Z,0.50
2022-11-26T12:23:35.268Z,0.70
2022-11-26T12:26:21.438Z,0.88
2022-11-26T12:29:44.765Z,0.75
2022-11-26T12:32:26.622Z,0.63
2022-11-26T12:35:08.705Z,0.50
2022-11-26T12:37:44.633Z,0.70
2022-11-26T12:40:42.759Z,0.45
2022-11-26T12:52:11.593Z,0.60
2022-11-26T12:55:39.675Z,0.40
2022-11-26T12:59:08.069Z,0.55
2022-11-26T13:01:43.663Z,0.70
2022-11-26T13:04:43.567Z,0.63
2022-11-26T13:07:35.690Z,0.50
2022-11-26T13:10:39.011Z,0.30
2022-11-26T13:13:53.589Z,0.43
2022-11-26T13:17:04.104Z,0.40
2022-11-26T13:19:44.436Z,0.32
2022-11-26T13:25:57.058Z,0.40
2022-11-26T13:29:06.732Z,1.05
2022-11-26T13:32:29.418Z,0.40
2022-11-26T13:35:34.108Z,0.35
2022-11-26T13:38:36.395Z,0.30
2022-11-26T13:41:55.848Z,0.40
2022-11-26T13:44:59.612Z,0.40
2022-11-26T13:48:06.758Z,0.57
2022-11-26T13:51:13.758Z,1.65
2022-11-26T13:54:00.403Z,1.33
2022-11-26T13:56:35.829Z,0.70
2022-11-26T13:59:30.625Z,0.40
2022-11-26T14:02:38.138Z,0.60
2022-11-26T14:05:23.411Z,0.52
2022-11-26T14:08:37.163Z,1.45
2022-11-26T14:11:10.539Z,1.05
2022-11-26T14:13:42.422Z,0.80
2022-11-26T14:16:12.940Z,0.77
2022-11-26T14:18:52.973Z,1.00
2022-11-26T14:21:26.810Z,0.50
2022-11-26T14:24:22.257Z,1.30
2022-11-26T14:26:55.619Z,1.50
2022-11-26T14:29:23.433Z,1.70
2022-11-26T14:32:02.623Z,1.30
2022-11-26T14:35:00.363Z,1.23
2022-11-26T14:37:31.005Z,1.00
2022-11-26T14:40:21.370Z,0.88
2022-11-26T14:43:19.597Z,1.02
2022-11-26T14:46:28.653Z,0.88
2022-11-26T14:49:05.479Z,0.57
2022-11-26T14:51:39.066Z,0.80
2022-11-26T14:54:25.554Z,0.98
2022-11-26T14:57:17.465Z,0.68
2022-11-26T15:00:22.750Z,0.70
2022-11-26T15:05:58.626Z,0.60
2022-11-26T15:08:31.242Z,0.30
2022-11-26T15:11:09.811Z,0.60
2022-11-26T15:13:46.630Z,0.85
2022-11-26T15:16:39.558Z,0.90
2022-11-26T15:21:46.741Z,1.40
2022-11-26T15:24:25.151Z,1.20
2022-11-26T15:26:53.250Z,1.02
2022-11-26T15:29:50.086Z,1.45
2022-11-26T15:32:33.396Z,1.98
2022-11-26T15:35:04.172Z,1.13
2022-11-26T15:37:37.247Z,1.02
2022-11-26T15:40:46.484Z,1.35
2022-11-26T15:43:45.660Z,1.10
2022-11-26T15:46:31.989Z,0.43
2022-11-26T15:49:12.574Z,1.33
2022-11-26T15:52:10.817Z,1.25
2022-11-26T15:55:18.582Z,0.90
2022-11-26T15:57:52.908Z,1.02
2022-11-26T16:00:36.673Z,0.70
2022-11-26T16:03:26.710Z,0.90
2022-11-26T16:05:58.441Z,0.90
2022-11-26T16:08:31.184Z,0.88
2022-11-26T16:11:20.298Z,1.05
2022-11-26T16:13:54.292Z,1.77
2022-11-26T16:16:29.513Z,1.25
2022-11-26T16:19:05.067Z,1.13
2022-11-26T16:21:48.654Z,1.20
2022-11-26T16:25:05.533Z,1.25
2022-11-26T16:27:35.489Z,0.90
2022-11-26T16:30:19.993Z,0.90
2022-11-26T16:32:52.513Z,0.95
2022-11-26T16:35:45.725Z,1.55
2022-11-26T16:38:29.521Z,1.13
2022-11-26T16:41:03.700Z,1.10
2022-11-26T16:43:53.410Z,1.20
2022-11-26T16:46:28.120Z,1.50
2022-11-26T16:49:02.171Z,1.40
2022-11-26T16:51:42.263Z,1.55
2022-11-26T16:54:15.931Z,0.80
2022-11-26T16:56:53.253Z,0.77
2022-11-26T16:59:31.352Z,1.13
2022-11-26T17:12:01.197Z,1.20
2022-11-26T17:14:29.343Z,0.70
2022-11-26T17:16:57.755Z,0.70
2022-11-26T17:19:34.149Z,0.70
2022-11-26T17:22:02.047Z,1.10
2022-11-26T17:27:23.477Z,0.80
2022-11-26T17:30:00.041Z,0.80
2022-11-26T17:32:35.397Z,0.82
2022-11-26T17:35:11.151Z,1.08
2022-11-26T17:37:41.073Z,1.08
2022-11-26T17:40:30.318Z,0.93
2022-11-26T17:43:01.770Z,0.93
2022-11-26T17:45:30.823Z,1.60
2022-11-26T17:47:59.510Z,0.90
2022-11-26T17:50:34.441Z,1.00
2022-11-26T17:53:06.191Z,1.10
2022-11-26T17:55:46.848Z,0.98
2022-11-26T17:58:19.203Z,0.70
2022-11-26T18:00:54.211Z,1.27
2022-11-26T18:03:40.786Z,1.10
2022-11-26T18:06:18.045Z,0.80
2022-11-26T18:09:04.517Z,1.10
2022-11-26T18:11:59.447Z,0.50
2022-11-26T18:14:46.434Z,1.10
2022-11-26T18:17:19.391Z,1.10
2022-11-26T18:19:56.683Z,0.85
2022-11-26T18:22:30.088Z,1.17
2022-11-26T18:25:03.643Z,1.33
2022-11-26T18:27:42.075Z,1.25
2022-11-26T18:30:12.320Z,1.90
2022-11-26T18:32:45.712Z,1.38
2022-11-26T18:35:18.564Z,0.88
2022-11-26T18:37:49.725Z,1.15
2022-11-26T18:40:25.946Z,1.35
2022-11-26T18:42:55.173Z,1.55
2022-11-26T18:45:24.413Z,0.93
2022-11-26T18:47:52.037Z,1.42
2022-11-26T18:53:03.324Z,1.90
2022-11-26T18:55:41.824Z,2.33
2022-11-26T18:58:20.803Z,1.85
2022-11-26T19:00:50.905Z,1.42
2022-11-26T19:03:33.373Z,1.10
2022-11-26T19:06:07.069Z,1.23
2022-11-26T19:08:41.040Z,1.20
2022-11-26T19:11:17.562Z,2.20
2022-11-26T19:13:47.486Z,1.85
2022-11-26T19:16:25.836Z,1.40
2022-11-26T19:19:03.851Z,2.20
2022-11-26T19:21:41.998Z,2.22
2022-11-26T19:24:13.471Z,1.75
2022-11-26T19:26:44.197Z,1.63
2022-11-26T19:29:15.975Z,1.33
2022-11-26T19:31:45.621Z,1.65
2022-11-26T19:34:19.162Z,1.27
2022-11-26T19:36:49.879Z,1.52
2022-11-26T19:39:23.647Z,1.58
2022-11-26T19:41:57.304Z,1.15
2022-11-26T19:44:27.603Z,2.67
2022-11-26T19:46:54.901Z,2.25
2022-11-26T19:49:23.073Z,4.05
2022-11-26T19:51:55.880Z,1.92
2022-11-26T19:54:25.116Z,1.30
2022-11-26T19:57:01.262Z,1.48
2022-11-26T19:59:33.715Z,1.45
2022-11-26T20:02:02.714Z,1.00
2022-11-26T20:04:32.916Z,1.42
2022-11-26T20:07:01.963Z,1.75
2022-11-26T20:09:31.476Z,1.40
2022-11-26T20:11:58.945Z,1.20
2022-11-26T20:14:34.423Z,1.45
2022-11-26T20:17:03.176Z,1.02
2022-11-26T20:19:34.407Z,0.90
2022-11-26T20:22:27.791Z,1.13
2022-11-26T20:25:10.288Z,1.38
2022-11-26T20:27:57.147Z,1.08
2022-11-26T20:30:28.860Z,0.95
2022-11-26T20:33:05.296Z,0.82
2022-11-26T20:35:47.093Z,1.85
2022-11-26T20:38:37.217Z,1.73
2022-11-26T20:41:19.067Z,1.17
2022-11-26T20:43:58.569Z,0.95
2022-11-26T20:46:35.869Z,0.68
2022-11-26T20:49:14.624Z,1.38
2022-11-26T20:51:56.988Z,1.00
2022-11-26T20:54:29.273Z,0.82
2022-11-26T20:57:07.044Z,0.70
2022-11-26T20:59:40.731Z,0.93
2022-11-26T21:02:15.887Z,1.05
2022-11-26T21:04:54.982Z,0.82
2022-11-26T21:07:42.696Z,0.80
2022-11-26T21:10:32.215Z,0.73
2022-11-26T21:13:03.807Z,0.70
2022-11-26T21:15:44.386Z,0.80
2022-11-26T21:20:51.769Z,1.20
2022-11-26T21:23:26.745Z,0.60
2022-11-26T21:25:58.772Z,1.17
2022-11-26T21:28:29.925Z,0.70
2022-11-26T21:30:58.539Z,0.90
2022-11-26T21:33:29.911Z,0.80
2022-11-26T21:36:09.386Z,1.10
2022-11-26T21:41:41.726Z,0.93
2022-11-26T21:44:09.587Z,0.73
2022-11-26T21:46:43.202Z,0.77
